Rejestracja

Wszystkie dane podawane są w czasie UTC za wyjątkiem miejsc gdzie jest jednoznacznie podane, że jest inaczej. Dane podawane w serwisie mają charakter informacyjny!!!
Informacje w sprawie dostępu do serwisu pod numerem tel. +48 22 68-28-138, CA MON (828-138)!!!
W związku z pracami remontowymi w SSH SZ RP mogą wystąpić problemy z obiegiem informacji meteorologicznej do dnia 30.10.2014r.
W tych przypadkach niezbędne informacje meteorologiczne udzielane będą pod nr tel. (22) 6828-230.

Aktualna Pogoda
 
Pogoda w Polsce
12°C Szczecin 8°C Suwałki 10°C Warszawa 11°C Poznan
12°C Opole 8°C Kraków 7°C Rzeszów
Więcej miast w Polsce

Pogoda w Europie
11°C Berlin 9°C Paryz 9°C Bruksela 8°C Oslo
9°C Praga 15°C Zagrzeb
Więcej miast w Europie

Metary wojskowe test
METAR EPCE 212330Z 13004KT 090V160 3000 -RA BR FEW010 OVC043 10/10 Q1000 RMK 103 097 8/2=
METAR EPDA 212330Z 12006KT 8000 -RA OVC060 11/10 Q0999 RMK 111 095 8/8=
METAR EPDE 212100Z 13004KT 6000 SCT026 BKN070 09/08 Q1005 RMK 093 092 7/3=
METAR EPIR 212300Z 12006KT 6000 -RA OVC045 11/10 Q1000 RMK 105 097 8/8=
METAR EPKS 212330Z 12006KT 9999 OVC065 11/10 Q0999 RMK 111 094 8/8=
METAR EPLK 212330Z 11004KT 8000 SCT050 BKN100 08/07 Q1001 RMK 088 089 6/4=
METAR EPLY 212300Z 15008KT 8000 -RA BKN047 OVC075 11/10 Q1001 RMK 113 094 8/5=
METAR EPMB 212330Z 13004KT 8000 OVC040 10/10 Q1001 RMK 101 097 8/8=
METAR EPMI 212300Z 14004KT 6000 RA OVC020 10/10 Q0999 RMK 103 096 8/8=
METAR EPMM 212330Z 13002KT 4000 BR FEW033 BKN070 BKN200 09/08 Q1003 RMK 091 095 7/2=
METAR EPOK 212330Z 16011KT 7000 BKN006 OVC054 11/10 Q1001 RMK 108 097 8/5=
METAR EPPR 212330Z AUTO 12004KT ///010 11/10 Q1001 RMK 106 096=
METAR EPPW 212330Z 12004KT 6000 BKN050 OVC084 11/10 Q1000 RMK 107 096 8/6=
METAR EPSN 212330Z 13008KT 9999 OVC020 11/10 Q0998 RMK 106 097 8/8=
METAR EPTM 212300Z 15004KT 9999 SCT050 OVC100 10/09 Q1002 RMK 100 095 8/3=


 
Informacje ogólne
Pogoda
Warszawa
Temperatura: 10.1°C
Wiatr: 3.0 m/s
Ciśnienie: 1003.3 hPa
Zjawiska: Brak
Temp. max: 12.8 °C
Temp. min: 10.1 °C


Dane astronomiczne
Warszawa:
Dzien: 10:19 h
Noc: 13:41 h


Using HW VSP powered by HW group.

Prawa autorskie©2007 SSH SZ RP. Wszelkie prawa zastrzeżone.